createdAt,value
2018-05-06T00:00:02.861Z,0
2018-05-06T00:05:03.300Z,0
2018-05-06T00:10:02.833Z,0
2018-05-06T00:15:03.405Z,0
2018-05-06T00:20:02.962Z,0
2018-05-06T00:25:02.512Z,0
2018-05-06T00:30:03.039Z,0
2018-05-06T00:35:02.604Z,0
2018-05-06T00:40:03.214Z,0
2018-05-06T00:45:02.849Z,0
2018-05-06T00:50:02.624Z,0
2018-05-06T00:55:03.250Z,0
2018-05-06T01:00:02.853Z,0
2018-05-06T01:05:02.518Z,0
2018-05-06T01:10:03.174Z,0
2018-05-06T01:15:02.767Z,0
2018-05-06T01:20:03.401Z,0
2018-05-06T01:25:02.935Z,0
2018-05-06T01:30:03.593Z,0
2018-05-06T01:35:03.072Z,0
2018-05-06T01:40:02.610Z,0
2018-05-06T01:45:03.106Z,0
2018-05-06T01:50:02.673Z,0
2018-05-06T01:55:03.222Z,0
2018-05-06T02:00:02.847Z,0
2018-05-06T02:05:02.481Z,0
2018-05-06T02:10:03.387Z,0
2018-05-06T02:15:02.831Z,0
2018-05-06T02:20:03.338Z,0
2018-05-06T02:25:02.846Z,0
2018-05-06T02:30:03.420Z,0
2018-05-06T02:35:02.965Z,0
2018-05-06T02:40:02.626Z,0
2018-05-06T02:45:03.384Z,0
2018-05-06T02:50:02.970Z,0
2018-05-06T02:55:02.480Z,0
2018-05-06T03:00:02.922Z,0
2018-05-06T03:05:02.456Z,0
2018-05-06T03:10:03.069Z,0
2018-05-06T03:15:02.637Z,1
2018-05-06T03:20:03.242Z,2
2018-05-06T03:25:02.766Z,4
2018-05-06T03:30:03.296Z,8
2018-05-06T03:35:02.800Z,26
2018-05-06T03:40:03.391Z,38
2018-05-06T03:45:02.916Z,52
2018-05-06T03:50:02.481Z,66
2018-05-06T03:55:03.090Z,98
2018-05-06T04:00:02.585Z,98
2018-05-06T04:05:03.134Z,260
2018-05-06T04:10:02.709Z,334
2018-05-06T04:15:03.287Z,415
2018-05-06T04:20:02.807Z,495
2018-05-06T04:25:03.353Z,574
2018-05-06T04:30:02.725Z,646
2018-05-06T04:35:03.438Z,720
2018-05-06T04:40:03.046Z,778
2018-05-06T04:45:02.600Z,829
2018-05-06T04:50:03.279Z,907
2018-05-06T04:55:02.840Z,983
2018-05-06T05:00:03.456Z,1000
2018-05-06T05:05:03.093Z,1000
2018-05-06T05:15:03.250Z,1000
2018-05-06T05:20:02.829Z,1000
2018-05-06T05:25:03.347Z,1000
2018-05-06T05:30:02.841Z,1000
2018-05-06T05:35:03.369Z,1000
2018-05-06T05:40:03.014Z,1000
2018-05-06T05:45:02.554Z,1000
2018-05-06T05:50:03.147Z,1000
2018-05-06T05:55:02.645Z,1000
2018-05-06T06:00:03.235Z,1000
2018-05-06T06:05:02.761Z,1000
2018-05-06T06:10:03.379Z,1000
2018-05-06T06:15:02.950Z,1000
2018-05-06T06:20:02.518Z,1000
2018-05-06T06:25:02.969Z,1000
2018-05-06T06:30:02.660Z,1000
2018-05-06T06:35:03.360Z,1000
2018-05-06T06:40:02.915Z,2000
2018-05-06T06:45:03.436Z,2000
2018-05-06T06:50:02.942Z,2000
2018-05-06T06:55:02.516Z,2000
2018-05-06T07:00:03.087Z,2000
2018-05-06T07:05:02.591Z,2000
2018-05-06T07:10:03.342Z,2000
2018-05-06T07:15:02.877Z,2000
2018-05-06T07:20:02.536Z,2000
2018-05-06T07:25:03.094Z,2000
2018-05-06T07:30:02.651Z,2000
2018-05-06T07:35:03.202Z,2000
2018-05-06T07:40:02.757Z,3000
2018-05-06T07:45:03.275Z,3000
2018-05-06T07:50:02.845Z,3000
2018-05-06T07:55:03.353Z,22000
2018-05-06T08:00:02.856Z,39000
2018-05-06T08:05:03.332Z,41000
2018-05-06T08:10:02.871Z,44000
2018-05-06T08:15:03.431Z,45000
2018-05-06T08:20:02.976Z,47000
2018-05-06T08:25:02.567Z,48000
2018-05-06T08:30:03.132Z,50000
2018-05-06T08:35:02.646Z,51000
2018-05-06T08:40:03.220Z,52000
2018-05-06T08:45:02.684Z,52000
2018-05-06T08:50:03.221Z,52000
2018-05-06T08:55:02.752Z,53000
2018-05-06T09:00:03.305Z,53000
2018-05-06T09:05:02.744Z,53000
2018-05-06T09:10:03.355Z,53000
2018-05-06T09:15:02.981Z,53000
2018-05-06T09:20:02.672Z,53000
2018-05-06T09:25:03.243Z,53000
2018-05-06T09:30:02.738Z,53000
2018-05-06T09:35:03.305Z,53000
2018-05-06T09:40:02.926Z,54000
2018-05-06T09:45:02.494Z,54000
2018-05-06T09:50:02.963Z,54000
2018-05-06T09:55:02.515Z,53000
2018-05-06T10:00:03.010Z,53000
2018-05-06T10:05:02.634Z,53000
2018-05-06T10:10:03.263Z,54000
2018-05-06T10:15:02.782Z,53000
2018-05-06T10:20:03.551Z,53000
2018-05-06T10:25:03.175Z,53000
2018-05-06T10:30:02.727Z,53000
2018-05-06T10:35:03.253Z,53000
2018-05-06T10:40:02.858Z,53000
2018-05-06T10:45:03.406Z,52000
2018-05-06T10:50:02.976Z,51000
2018-05-06T10:55:03.158Z,51000
2018-05-06T11:00:02.677Z,52000
2018-05-06T11:05:03.207Z,51000
2018-05-06T11:10:02.819Z,51000
2018-05-06T11:15:03.302Z,51000
2018-05-06T11:20:02.765Z,51000
2018-05-06T11:25:03.288Z,52000
2018-05-06T11:30:02.830Z,50000
2018-05-06T11:35:03.386Z,51000
2018-05-06T11:40:02.998Z,51000
2018-05-06T11:45:02.549Z,50000
2018-05-06T11:50:03.070Z,51000
2018-05-06T11:55:02.651Z,51000
2018-05-06T12:00:03.201Z,50000
2018-05-06T12:05:02.741Z,49000
2018-05-06T12:10:03.471Z,50000
2018-05-06T12:15:03.277Z,49000
2018-05-06T12:20:02.846Z,49000
2018-05-06T12:25:03.398Z,49000
2018-05-06T12:30:02.844Z,49000
2018-05-06T12:35:03.417Z,48000
2018-05-06T12:40:03.030Z,47000
2018-05-06T12:45:02.634Z,46000
2018-05-06T12:50:03.161Z,47000
2018-05-06T12:55:02.643Z,45000
2018-05-06T13:00:03.100Z,44000
2018-05-06T13:05:02.633Z,43000
2018-05-06T13:10:03.307Z,43000
2018-05-06T13:15:02.873Z,41000
2018-05-06T13:20:03.437Z,40000
2018-05-06T13:25:03.023Z,39000
2018-05-06T13:30:02.618Z,38000
2018-05-06T13:35:03.370Z,37000
2018-05-06T13:40:02.975Z,35000
2018-05-06T13:45:02.478Z,35000
2018-05-06T13:50:03.176Z,34000
2018-05-06T13:55:02.981Z,33000
2018-05-06T14:00:02.571Z,32000
2018-05-06T14:05:03.141Z,31000
2018-05-06T14:10:02.673Z,31000
2018-05-06T14:15:03.197Z,30000
2018-05-06T14:20:02.723Z,30000
2018-05-06T14:25:03.287Z,30000
2018-05-06T14:30:02.939Z,30000
2018-05-06T14:35:02.960Z,29000
2018-05-06T14:40:02.620Z,28000
2018-05-06T14:45:03.192Z,27000
2018-05-06T14:50:02.704Z,27000
2018-05-06T14:55:03.263Z,26000
2018-05-06T15:00:02.709Z,26000
2018-05-06T15:05:03.328Z,25000
2018-05-06T15:10:02.943Z,25000
2018-05-06T15:15:02.484Z,24000
2018-05-06T15:20:03.016Z,23000
2018-05-06T15:25:02.778Z,23000
2018-05-06T15:30:03.332Z,23000
2018-05-06T15:35:02.898Z,22000
2018-05-06T15:40:02.486Z,22000
2018-05-06T15:45:03.079Z,21000
2018-05-06T15:50:02.581Z,20000
2018-05-06T15:55:03.109Z,20000
2018-05-06T16:00:02.838Z,20000
2018-05-06T16:05:02.600Z,19000
2018-05-06T16:10:03.241Z,19000
2018-05-06T16:15:02.735Z,18000
2018-05-06T16:20:03.622Z,18000
2018-05-06T16:25:03.153Z,17000
2018-05-06T16:30:02.717Z,17000
2018-05-06T16:35:03.434Z,16000
2018-05-06T16:40:02.974Z,15000
2018-05-06T16:45:02.612Z,15000
2018-05-06T16:50:03.106Z,14000
2018-05-06T16:55:02.553Z,14000
2018-05-06T17:00:03.224Z,13000
2018-05-06T17:05:02.729Z,13000
2018-05-06T17:10:02.525Z,12000
2018-05-06T17:15:03.038Z,11000
2018-05-06T17:20:02.596Z,11000
2018-05-06T17:25:03.219Z,11000
2018-05-06T17:30:02.719Z,10000
2018-05-06T17:35:03.328Z,9000
2018-05-06T17:40:02.939Z,9000
2018-05-06T17:45:03.433Z,8000
2018-05-06T17:50:03.091Z,7000
2018-05-06T17:55:02.723Z,7000
2018-05-06T18:00:03.293Z,6000
2018-05-06T18:05:02.846Z,6000
2018-05-06T18:10:03.440Z,5000
2018-05-06T18:15:03.125Z,1000
2018-05-06T18:20:02.768Z,1000
2018-05-06T18:25:03.338Z,1000
2018-05-06T18:30:02.871Z,1000
2018-05-06T18:35:03.572Z,901
2018-05-06T18:40:03.180Z,769
2018-05-06T18:45:02.800Z,570
2018-05-06T18:50:03.354Z,462
2018-05-06T18:55:02.842Z,362
2018-05-06T19:00:03.391Z,280
2018-05-06T19:05:02.928Z,280
2018-05-06T19:10:02.512Z,90
2018-05-06T19:15:02.970Z,68
2018-05-06T19:20:02.539Z,52
2018-05-06T19:25:03.042Z,42
2018-05-06T19:30:02.603Z,28
2018-05-06T19:35:03.217Z,14
2018-05-06T19:40:02.824Z,6
2018-05-06T19:45:03.403Z,2
2018-05-06T19:50:02.995Z,1
2018-05-06T19:55:02.606Z,1
2018-05-06T20:00:03.235Z,0
2018-05-06T20:05:02.842Z,0
2018-05-06T20:10:02.509Z,0
2018-05-06T20:15:03.112Z,0
2018-05-06T20:20:02.723Z,0
2018-05-06T20:25:03.299Z,0
2018-05-06T20:30:02.854Z,0
2018-05-06T20:35:02.473Z,0
2018-05-06T20:40:03.147Z,0
2018-05-06T20:45:02.815Z,0
2018-05-06T20:50:03.381Z,0
2018-05-06T20:55:02.899Z,0
2018-05-06T21:00:02.483Z,0
2018-05-06T21:05:03.116Z,0
2018-05-06T21:10:02.704Z,0
2018-05-06T21:15:03.232Z,0
2018-05-06T21:20:02.721Z,0
2018-05-06T21:25:03.304Z,0
2018-05-06T21:30:02.841Z,0
2018-05-06T21:35:03.398Z,0
2018-05-06T21:40:03.014Z,0
2018-05-06T21:45:02.981Z,0
2018-05-06T21:50:02.739Z,0
2018-05-06T21:55:03.365Z,0
2018-05-06T22:00:02.960Z,0
2018-05-06T22:05:02.552Z,0
2018-05-06T22:10:03.200Z,0
2018-05-06T22:15:02.678Z,0
2018-05-06T22:20:03.177Z,0
2018-05-06T22:25:02.714Z,0
2018-05-06T22:35:03.170Z,0
2018-05-06T22:40:02.761Z,0
2018-05-06T22:45:03.340Z,0
2018-05-06T22:50:02.911Z,0
2018-05-06T22:55:03.536Z,0
2018-05-06T23:00:03.121Z,0
2018-05-06T23:05:02.920Z,0
2018-05-06T23:10:02.596Z,0
2018-05-06T23:15:03.169Z,0
2018-05-06T23:20:02.698Z,0
2018-05-06T23:25:03.248Z,0
2018-05-06T23:30:02.865Z,0
2018-05-06T23:35:02.482Z,0
2018-05-06T23:40:03.105Z,0
2018-05-06T23:45:02.679Z,0
2018-05-06T23:50:03.196Z,0
2018-05-06T23:55:02.644Z,0
